KMOB/MOB METAR and TAF weather

Enter ICAO airport designator
Station Type Date Time Source
KMOB METAR 2018/12/19 09:56 UTC NOAA

KMOB 190956Z AUTO 00000KT 10SM CLR 09/08 A3003 RMK AO2 SLP168 T00890078


Station Type Date Time Source
KMOB Decoded METAR 2018/12/19 09:56 UTC NOAA

MOBILE REGIONAL AIRPORT, AL, United States (KMOB) 30-41N 88-14W 67M
Dec 19, 2018 - 04:56 AM EST / 2018.12.19 0956 UTC
Wind: Calm:0
Visibility: 10 mile(s):0
Sky conditions: clear
Temperature: 48.0 F (8.9 C)
Dew Point: 46.0 F (7.8 C)
Relative Humidity: 92%
Pressure (altimeter): 30.03 in. Hg (1016 hPa)
ob: KMOB 190956Z AUTO 00000KT 10SM CLR 09/08 A3003 RMK AO2 SLP168 T00890078
cycle: 10

Station Type Date Time Source
KMOB TAF 2018/12/19 06:24 UTC NOAA

TAF KMOB 190522Z 1906/2006 00000KT P6SM OVC250
FM191600 11008KT P6SM BKN100
FM192000 10008KT P6SM BKN025
TEMPO 1920/1924 4SM SHRA BKN020
FM200000 11013KT 4SM -RA BR OVC012 PROB30 2000/2006 3SM TSRA BKN008CB


Example: see airport list